createdAt,value
2017-09-15T00:02:15.547Z,90.00
2017-09-15T00:05:16.811Z,89.90
2017-09-15T00:08:18.798Z,89.90
2017-09-15T00:11:20.091Z,89.90
2017-09-15T00:14:21.316Z,90.00
2017-09-15T00:17:22.629Z,90.20
2017-09-15T00:20:24.656Z,90.10
2017-09-15T00:23:25.976Z,90.10
2017-09-15T00:26:27.246Z,90.00
2017-09-15T00:29:28.507Z,89.70
2017-09-15T00:32:29.910Z,89.90
2017-09-15T00:35:31.186Z,90.10
2017-09-15T00:38:32.471Z,89.80
2017-09-15T00:41:34.482Z,89.80
2017-09-15T00:44:36.034Z,89.70
2017-09-15T00:47:37.274Z,89.70
2017-09-15T00:50:38.587Z,89.40
2017-09-15T00:53:40.622Z,89.10
2017-09-15T00:56:41.946Z,89.70
2017-09-15T00:59:43.270Z,88.70
2017-09-15T01:02:45.299Z,88.90
2017-09-15T01:05:47.017Z,88.90
2017-09-15T01:08:48.328Z,88.30
2017-09-15T01:11:50.471Z,88.50
2017-09-15T01:14:51.742Z,88.40
2017-09-15T01:17:53.051Z,88.60
2017-09-15T01:20:54.286Z,88.50
2017-09-15T01:23:55.593Z,88.20
2017-09-15T01:26:57.570Z,88.70
2017-09-15T01:29:58.854Z,88.60
2017-09-15T01:33:00.257Z,88.00
2017-09-15T01:36:02.258Z,88.50
2017-09-15T01:39:03.723Z,87.90
2017-09-15T01:42:04.987Z,88.50
2017-09-15T01:45:06.278Z,89.20
2017-09-15T01:48:08.300Z,88.70
2017-09-15T01:51:09.661Z,88.70
2017-09-15T01:54:10.922Z,89.20
2017-09-15T01:57:12.214Z,88.90
2017-09-15T02:00:13.491Z,88.80
2017-09-15T02:03:14.771Z,89.20
2017-09-15T02:06:16.019Z,88.70
2017-09-15T02:09:17.321Z,88.50
2017-09-15T02:12:18.570Z,88.40
2017-09-15T02:15:19.851Z,88.70
2017-09-15T02:18:21.125Z,87.80
2017-09-15T02:21:23.146Z,87.30
2017-09-15T02:24:24.446Z,87.20
2017-09-15T02:27:26.475Z,87.80
2017-09-15T02:30:27.746Z,87.80
2017-09-15T02:33:29.046Z,87.50
2017-09-15T02:36:30.291Z,87.10
2017-09-15T02:39:31.578Z,87.10
2017-09-15T02:42:33.105Z,87.40
2017-09-15T02:45:35.102Z,86.80
2017-09-15T02:48:36.588Z,86.80
2017-09-15T02:51:37.865Z,86.70
2017-09-15T02:54:39.162Z,86.90
2017-09-15T02:57:41.161Z,87.40
2017-09-15T03:00:42.455Z,87.10
2017-09-15T03:03:43.733Z,87.10
2017-09-15T03:06:45.798Z,86.30
2017-09-15T03:09:47.966Z,86.40
2017-09-15T03:12:49.982Z,86.30
2017-09-15T03:15:51.390Z,86.30
2017-09-15T03:18:53.406Z,85.90
2017-09-15T03:21:55.459Z,85.80
2017-09-15T03:24:56.786Z,85.80
2017-09-15T03:27:58.101Z,85.70
2017-09-15T03:30:59.375Z,85.60
2017-09-15T03:34:01.410Z,85.80
2017-09-15T03:37:02.651Z,85.80
2017-09-15T03:40:03.947Z,86.00
2017-09-15T03:43:05.214Z,86.80
2017-09-15T03:46:06.505Z,86.00
2017-09-15T03:49:07.833Z,85.80
2017-09-15T03:52:09.103Z,85.40
2017-09-15T03:55:10.509Z,85.00
2017-09-15T03:58:11.747Z,85.80
2017-09-15T04:01:13.154Z,85.70
2017-09-15T04:04:14.474Z,85.70
2017-09-15T04:07:15.750Z,86.00
2017-09-15T04:10:17.033Z,86.00
2017-09-15T04:13:18.346Z,86.10
2017-09-15T04:16:19.590Z,86.40
2017-09-15T04:19:20.883Z,87.10
2017-09-15T04:22:22.375Z,86.90
2017-09-15T04:25:23.642Z,86.80
2017-09-15T04:28:24.945Z,87.20
2017-09-15T04:31:26.234Z,87.70
2017-09-15T04:34:27.526Z,87.20
2017-09-15T04:37:28.837Z,87.20
2017-09-15T04:40:30.150Z,88.40
2017-09-15T04:43:31.422Z,87.50
2017-09-15T04:46:32.743Z,87.30
2017-09-15T04:49:34.028Z,87.50
2017-09-15T04:52:35.334Z,87.50
2017-09-15T04:55:36.637Z,87.60
2017-09-15T04:58:37.926Z,87.50
2017-09-15T05:01:39.195Z,87.50
2017-09-15T05:04:40.443Z,87.90
2017-09-15T05:07:41.758Z,87.40
2017-09-15T05:10:43.758Z,86.70
2017-09-15T05:13:45.031Z,86.70
2017-09-15T05:16:46.330Z,86.40
2017-09-15T05:19:47.611Z,87.20
2017-09-15T05:22:48.990Z,86.90
2017-09-15T05:25:50.258Z,87.20
2017-09-15T05:28:52.291Z,87.10
2017-09-15T05:31:53.690Z,87.10
2017-09-15T05:34:54.965Z,86.60
2017-09-15T05:37:56.261Z,86.50
2017-09-15T05:40:57.534Z,86.70
2017-09-15T05:43:59.568Z,87.20
2017-09-15T05:47:00.835Z,87.20
2017-09-15T05:50:02.902Z,87.20
2017-09-15T05:53:04.894Z,86.90
2017-09-15T05:56:06.219Z,86.70
2017-09-15T05:59:07.467Z,87.60
2017-09-15T06:02:09.503Z,87.60
2017-09-15T06:05:10.787Z,87.50
2017-09-15T06:08:12.810Z,87.80
2017-09-15T06:11:14.071Z,87.70
2017-09-15T06:14:15.370Z,87.10
2017-09-15T06:17:16.943Z,87.00
2017-09-15T06:20:18.191Z,86.50
2017-09-15T06:23:19.518Z,87.00
2017-09-15T06:26:20.759Z,87.50
2017-09-15T06:29:22.062Z,87.60
2017-09-15T06:32:23.333Z,88.00
2017-09-15T06:35:24.645Z,86.90
2017-09-15T06:38:25.906Z,88.30
2017-09-15T06:41:27.163Z,87.30
2017-09-15T06:44:28.461Z,87.90
2017-09-15T06:47:29.763Z,87.80
2017-09-15T06:50:31.007Z,87.80
2017-09-15T06:53:32.315Z,87.10
2017-09-15T06:56:33.575Z,87.40
2017-09-15T06:59:34.850Z,87.30
2017-09-15T07:02:36.130Z,86.60
2017-09-15T07:05:38.162Z,87.60
2017-09-15T07:08:39.499Z,87.40
2017-09-15T07:11:40.741Z,87.40
2017-09-15T07:14:42.034Z,88.10
2017-09-15T07:17:44.015Z,86.80
2017-09-15T07:20:46.040Z,87.90
2017-09-15T07:23:47.333Z,87.80
2017-09-15T07:26:48.610Z,86.70
2017-09-15T07:29:49.862Z,87.20
2017-09-15T07:32:51.161Z,88.00
2017-09-15T07:36:00.100Z,88.20
2017-09-15T07:39:02.149Z,87.90
2017-09-15T07:42:03.430Z,87.90
2017-09-15T07:45:04.722Z,87.40
2017-09-15T07:48:05.980Z,87.50
2017-09-15T07:51:07.251Z,86.90
2017-09-15T07:54:09.316Z,86.60
2017-09-15T07:57:11.622Z,86.90
2017-09-15T08:00:12.899Z,86.80
2017-09-15T08:03:14.166Z,88.00
2017-09-15T08:06:15.426Z,87.90
2017-09-15T08:09:16.731Z,88.20
2017-09-15T08:12:18.006Z,88.40
2017-09-15T08:15:19.346Z,89.10
2017-09-15T08:18:20.758Z,89.00
2017-09-15T08:21:22.006Z,89.10
2017-09-15T08:24:51.681Z,89.00
2017-09-15T08:27:52.970Z,89.20
2017-09-15T08:30:54.265Z,88.30
2017-09-15T08:33:55.658Z,89.20
2017-09-15T08:36:56.938Z,90.20
2017-09-15T08:39:58.458Z,90.10
2017-09-15T08:43:00.474Z,90.70
2017-09-15T08:46:01.761Z,90.60
2017-09-15T08:49:10.806Z,89.60
2017-09-15T08:52:12.086Z,89.50
2017-09-15T08:55:13.350Z,89.80
2017-09-15T08:58:14.644Z,90.50
2017-09-15T09:01:16.655Z,90.20
2017-09-15T09:04:17.922Z,90.10
2017-09-15T09:07:19.286Z,90.40
2017-09-15T09:10:20.546Z,90.20
2017-09-15T09:13:22.566Z,90.60
2017-09-15T09:16:23.803Z,90.60
2017-09-15T09:19:25.094Z,90.20
2017-09-15T09:22:26.330Z,90.80
2017-09-15T09:25:27.646Z,90.60
2017-09-15T09:28:29.093Z,90.90
2017-09-15T09:31:30.330Z,90.60
2017-09-15T09:34:31.610Z,90.80
2017-09-15T09:37:32.864Z,89.70
2017-09-15T09:40:34.135Z,90.00
2017-09-15T09:43:35.427Z,89.90
2017-09-15T09:46:36.696Z,89.90
2017-09-15T09:49:37.934Z,90.10
2017-09-15T09:52:39.243Z,88.50
2017-09-15T09:55:41.354Z,90.20
2017-09-15T09:58:42.609Z,90.10
2017-09-15T10:01:43.883Z,90.70
2017-09-15T10:04:45.151Z,89.40
2017-09-15T10:07:47.188Z,90.00
2017-09-15T10:10:48.418Z,90.00
2017-09-15T10:13:49.682Z,90.30
2017-09-15T10:16:50.926Z,88.90
2017-09-15T10:19:52.198Z,87.20
2017-09-15T10:22:53.485Z,86.30
2017-09-15T10:25:54.792Z,83.20
2017-09-15T10:28:56.246Z,86.10
2017-09-15T10:31:57.510Z,87.30
2017-09-15T10:34:59.514Z,85.50
2017-09-15T10:38:00.798Z,85.40
2017-09-15T10:41:02.066Z,87.30
2017-09-15T10:44:03.341Z,89.50
2017-09-15T10:47:04.646Z,89.60
2017-09-15T10:50:05.922Z,88.00
2017-09-15T10:53:07.935Z,90.00
2017-09-15T10:56:09.179Z,90.00
2017-09-15T10:59:16.702Z,89.70
2017-09-15T11:02:17.929Z,89.20
2017-09-15T11:05:19.221Z,89.20
2017-09-15T11:08:21.218Z,88.80
2017-09-15T11:11:22.469Z,88.70
2017-09-15T11:14:23.770Z,90.80
2017-09-15T11:17:25.049Z,90.70
2017-09-15T11:20:27.059Z,90.90
2017-09-15T11:23:28.329Z,90.90
2017-09-15T11:26:29.617Z,90.70
2017-09-15T11:29:30.878Z,90.00
2017-09-15T11:32:32.157Z,90.00
2017-09-15T11:35:33.546Z,88.10
2017-09-15T11:38:35.557Z,86.70
2017-09-15T11:41:36.887Z,86.60
2017-09-15T11:44:38.850Z,86.00
2017-09-15T11:47:40.149Z,85.90
2017-09-15T11:50:41.425Z,88.10
2017-09-15T11:53:43.418Z,84.80
2017-09-15T11:56:44.728Z,84.70
2017-09-15T11:59:46.742Z,84.50
2017-09-15T12:02:48.015Z,84.40
2017-09-15T12:05:49.298Z,83.50
2017-09-15T12:08:51.290Z,84.70
2017-09-15T12:11:52.581Z,84.60
2017-09-15T12:14:54.102Z,88.20
2017-09-15T12:17:55.357Z,85.00
2017-09-15T12:20:56.662Z,84.30
2017-09-15T12:23:58.749Z,83.20
2017-09-15T12:27:00.033Z,83.30
2017-09-15T12:30:02.106Z,79.50
2017-09-15T12:33:03.370Z,79.30
2017-09-15T12:36:04.703Z,79.90
2017-09-15T12:39:05.982Z,79.30
2017-09-15T12:42:07.363Z,80.00
2017-09-15T12:45:08.619Z,84.60
2017-09-15T12:48:09.906Z,82.10
2017-09-15T12:51:11.139Z,81.30
2017-09-15T12:54:12.466Z,80.90
2017-09-15T12:57:13.754Z,80.40
2017-09-15T13:00:15.092Z,80.80
2017-09-15T13:03:16.362Z,82.10
2017-09-15T13:06:17.783Z,81.00
2017-09-15T13:09:19.061Z,80.20
2017-09-15T13:12:20.338Z,83.20
2017-09-15T13:15:22.378Z,83.80
2017-09-15T13:18:23.658Z,83.70
2017-09-15T13:21:25.643Z,83.50
2017-09-15T13:24:27.041Z,83.50
2017-09-15T13:27:28.649Z,84.30
2017-09-15T13:30:29.950Z,85.00
2017-09-15T13:33:31.342Z,80.00
2017-09-15T13:36:32.586Z,80.10
2017-09-15T13:39:33.854Z,80.40
2017-09-15T13:42:35.086Z,81.50
2017-09-15T13:45:36.334Z,81.10
2017-09-15T13:48:37.597Z,78.40
2017-09-15T13:51:38.893Z,77.80
2017-09-15T13:54:40.295Z,79.60
2017-09-15T13:57:41.566Z,76.00
2017-09-15T14:00:42.838Z,76.00
2017-09-15T14:03:44.101Z,75.80
2017-09-15T14:06:46.126Z,79.70
2017-09-15T14:09:47.414Z,79.10
2017-09-15T14:12:49.437Z,80.40
2017-09-15T14:15:50.847Z,80.20
2017-09-15T14:18:52.849Z,75.90
2017-09-15T14:21:54.257Z,75.90
2017-09-15T14:24:56.254Z,75.80
2017-09-15T14:27:57.545Z,75.80
2017-09-15T14:30:58.842Z,77.60
2017-09-15T14:34:00.130Z,79.80
2017-09-15T14:37:02.130Z,73.90
2017-09-15T14:40:04.171Z,74.10
2017-09-15T14:43:05.414Z,74.10
2017-09-15T14:46:06.706Z,72.00
2017-09-15T14:49:07.995Z,74.70
2017-09-15T14:52:11.797Z,78.80
2017-09-15T14:55:13.044Z,75.60
2017-09-15T14:58:14.392Z,74.90
2017-09-15T15:01:15.643Z,82.00
2017-09-15T15:04:16.937Z,72.90
2017-09-15T15:07:18.925Z,73.30
2017-09-15T15:10:20.308Z,73.20
2017-09-15T15:13:21.554Z,72.90
2017-09-15T15:16:22.846Z,75.10
2017-09-15T15:19:24.099Z,73.30
2017-09-15T15:22:25.470Z,74.50
2017-09-15T15:25:26.738Z,73.20
2017-09-15T15:28:28.033Z,75.40
2017-09-15T15:31:29.333Z,71.60
2017-09-15T15:34:30.657Z,72.80
2017-09-15T15:37:32.646Z,72.40
2017-09-15T15:40:33.888Z,72.40
2017-09-15T15:43:35.206Z,72.70
2017-09-15T15:46:37.239Z,70.00
2017-09-15T15:49:38.523Z,69.80
2017-09-15T15:52:41.357Z,66.80
2017-09-15T15:55:42.646Z,65.50
2017-09-15T15:58:43.926Z,67.80
2017-09-15T16:01:45.214Z,68.60
2017-09-15T16:04:46.618Z,73.30
2017-09-15T16:07:48.610Z,74.10
2017-09-15T16:10:49.971Z,74.10
2017-09-15T16:13:51.215Z,73.80
2017-09-15T16:16:52.501Z,71.00
2017-09-15T16:19:53.810Z,73.10
2017-09-15T16:22:55.115Z,75.20
2017-09-15T16:25:57.179Z,76.40
2017-09-15T16:28:58.524Z,76.40
2017-09-15T16:31:59.843Z,77.20
2017-09-15T16:35:01.245Z,76.30
2017-09-15T16:38:08.974Z,76.10
2017-09-15T16:41:16.302Z,79.00
2017-09-15T16:44:23.704Z,78.90
2017-09-15T16:47:31.081Z,82.90
2017-09-15T16:50:32.401Z,80.70
2017-09-15T16:53:33.751Z,79.50
2017-09-15T16:56:35.061Z,80.90
2017-09-15T16:59:37.139Z,78.50
2017-09-15T17:02:38.529Z,78.50
2017-09-15T17:05:40.603Z,78.40
2017-09-15T17:08:41.878Z,78.30
2017-09-15T17:11:43.218Z,77.90
2017-09-15T17:14:44.582Z,77.80
2017-09-15T17:17:45.967Z,77.40
2017-09-15T17:20:47.332Z,76.90
2017-09-15T17:23:49.523Z,77.80
2017-09-15T17:26:52.839Z,76.30
2017-09-15T17:29:55.384Z,76.00
2017-09-15T17:32:57.251Z,77.80
2017-09-15T17:35:58.586Z,78.40
2017-09-15T17:38:59.988Z,78.30
2017-09-15T17:42:01.583Z,78.10
2017-09-15T17:45:02.933Z,78.20
2017-09-15T17:48:04.301Z,78.10
2017-09-15T17:51:06.729Z,77.30
2017-09-15T17:54:08.917Z,77.40
2017-09-15T17:57:10.209Z,77.40
2017-09-15T18:00:12.518Z,78.70
2017-09-15T18:03:14.707Z,78.50
2017-09-15T18:06:16.801Z,78.50
2017-09-15T18:09:18.156Z,78.40
2017-09-15T18:12:19.861Z,78.60
2017-09-15T18:15:21.708Z,79.10
2017-09-15T18:18:24.014Z,79.30
2017-09-15T18:21:26.517Z,79.50
2017-09-15T18:24:27.863Z,79.40
2017-09-15T18:27:29.231Z,79.20
2017-09-15T18:30:31.635Z,79.20
2017-09-15T18:33:33.330Z,79.10
2017-09-15T18:36:35.975Z,80.20
2017-09-15T18:39:38.058Z,80.20
2017-09-15T18:42:40.450Z,80.10
2017-09-15T18:45:42.898Z,80.10
2017-09-15T18:48:44.359Z,80.20
2017-09-15T18:51:47.305Z,79.70
2017-09-15T18:54:49.945Z,80.20
2017-09-15T18:57:51.747Z,80.20
2017-09-15T19:00:53.860Z,80.60
2017-09-15T19:03:57.364Z,79.50
2017-09-15T19:06:58.794Z,79.40
2017-09-15T19:10:01.987Z,79.60
2017-09-15T19:13:03.466Z,79.80
2017-09-15T19:16:05.230Z,79.90
2017-09-15T19:22:15.292Z,79.70
2017-09-15T19:25:16.614Z,79.80
2017-09-15T19:28:17.962Z,79.40
2017-09-15T19:34:50.734Z,79.70
2017-09-15T19:37:52.185Z,80.30
2017-09-15T19:40:53.709Z,80.20
2017-09-15T19:43:55.073Z,79.90
2017-09-15T19:46:56.593Z,80.30
2017-09-15T19:49:59.157Z,80.30
2017-09-15T19:53:00.454Z,80.30
2017-09-15T19:56:01.778Z,80.20
2017-09-15T19:59:03.136Z,80.40
2017-09-15T20:02:05.842Z,80.50
2017-09-15T20:05:07.240Z,80.10
2017-09-15T20:08:08.640Z,79.80
2017-09-15T20:11:10.827Z,79.70
2017-09-15T20:14:12.136Z,79.40
2017-09-15T20:17:13.435Z,80.30
2017-09-15T20:20:14.739Z,80.00
2017-09-15T20:23:16.112Z,79.90
2017-09-15T20:26:17.592Z,79.90
2017-09-15T20:29:19.054Z,80.30
2017-09-15T20:32:20.512Z,80.80
2017-09-15T20:35:22.563Z,80.30
2017-09-15T20:38:23.939Z,80.30
2017-09-15T20:41:26.380Z,79.80
2017-09-15T20:44:27.659Z,80.20
2017-09-15T20:47:28.976Z,80.00
2017-09-15T20:50:30.489Z,80.40
2017-09-15T20:53:31.801Z,80.20
2017-09-15T20:56:33.240Z,80.30
2017-09-15T20:59:34.554Z,80.30
2017-09-15T21:02:35.890Z,79.90
2017-09-15T21:05:37.184Z,80.10
2017-09-15T21:08:39.340Z,80.00
2017-09-15T21:11:42.590Z,79.60
2017-09-15T21:14:43.951Z,79.60
2017-09-15T21:17:45.919Z,79.80
2017-09-15T21:20:47.175Z,79.70
2017-09-15T21:23:48.555Z,79.20
2017-09-15T21:26:50.596Z,79.90
2017-09-15T21:29:51.956Z,79.30
2017-09-15T21:32:53.254Z,79.30
2017-09-15T21:35:54.611Z,79.10
2017-09-15T21:38:55.922Z,78.90
2017-09-15T21:41:57.191Z,79.20
2017-09-15T21:44:58.483Z,78.40
2017-09-15T21:47:59.815Z,78.50
2017-09-15T21:51:01.274Z,78.90
2017-09-15T21:54:02.563Z,78.30
2017-09-15T21:57:03.930Z,79.00
2017-09-15T22:00:05.342Z,78.80
2017-09-15T22:03:06.661Z,78.60
2017-09-15T22:06:08.103Z,79.10
2017-09-15T22:09:09.401Z,79.00
2017-09-15T22:12:10.716Z,79.30
2017-09-15T22:15:12.021Z,79.20
2017-09-15T22:18:13.406Z,79.50
2017-09-15T22:21:15.255Z,79.00
2017-09-15T22:24:16.558Z,78.30
2017-09-15T22:27:17.932Z,78.50
2017-09-15T22:30:19.238Z,78.20
2017-09-15T22:33:21.169Z,78.00
2017-09-15T22:36:22.429Z,77.90
2017-09-15T22:39:23.758Z,77.90
2017-09-15T22:42:25.746Z,78.00
2017-09-15T22:45:27.054Z,78.00
2017-09-15T22:48:28.554Z,77.50
2017-09-15T22:51:29.822Z,77.40
2017-09-15T22:54:31.131Z,77.20
2017-09-15T22:57:33.155Z,77.10
2017-09-15T23:00:34.487Z,77.10
2017-09-15T23:03:35.756Z,77.90
2017-09-15T23:06:37.062Z,77.90
2017-09-15T23:09:38.326Z,77.40
2017-09-15T23:12:39.702Z,77.70
2017-09-15T23:15:41.050Z,77.10
2017-09-15T23:18:42.322Z,77.60
2017-09-15T23:21:43.710Z,77.50
2017-09-15T23:24:44.973Z,77.00
2017-09-15T23:27:46.293Z,77.20
2017-09-15T23:30:47.578Z,77.00
2017-09-15T23:33:48.914Z,76.90
2017-09-15T23:36:50.213Z,77.10
2017-09-15T23:39:51.518Z,77.90
2017-09-15T23:42:52.931Z,77.60
2017-09-15T23:45:55.029Z,77.30
2017-09-15T23:48:56.352Z,77.20
2017-09-15T23:51:58.378Z,76.90
2017-09-15T23:54:59.694Z,76.90
2017-09-15T23:58:00.970Z,76.80
